Time;durP1;ratioP1;P1;durP2;ratioP2;P2;SDS_P1;SDS_P2;PMS_P1;PMS_P2;Temp;Humidity;BMP_temperature;BMP_pressure;BME280_temperature;BME280_humidity;BME280_pressure;Samples;Min_cycle;Max_cycle;Signal;HPM_P1;HPM_P2
2023/01/11 00:01:22;;;;;;;1.10;0.40;;;10.60;99.90;;;;;;5110622;28;20190;-76
2023/01/11 00:03:47;;;;;;;1.20;0.50;;;10.60;99.90;;;;;;5110074;28;20221;-76
2023/01/11 00:06:13;;;;;;;1.20;0.50;;;10.60;99.90;;;;;;5110453;28;20202;-76
2023/01/11 00:08:39;;;;;;;1.50;0.40;;;10.60;99.90;;;;;;5091775;28;20282;-76
2023/01/11 00:11:12;;;;;;;1.10;0.40;;;10.60;99.90;;;;;;5110313;28;20187;-76
2023/01/11 00:13:38;;;;;;;1.20;0.40;;;10.60;99.90;;;;;;5091951;28;20257;-76
2023/01/11 00:16:08;;;;;;;2.00;0.77;;;10.60;99.90;;;;;;5091612;28;20183;-75
2023/01/11 00:18:34;;;;;;;1.52;0.50;;;10.60;99.90;;;;;;5075004;28;20828;-75
2023/01/11 00:21:07;;;;;;;1.25;0.50;;;10.60;99.90;;;;;;5074867;28;20650;-75
2023/01/11 00:23:37;;;;;;;1.20;0.50;;;10.60;99.90;;;;;;5110314;28;20217;-75
2023/01/11 00:26:04;;;;;;;1.23;0.50;;;10.60;99.90;;;;;;5109853;28;20231;-75
2023/01/11 00:28:30;;;;;;;1.30;0.47;;;10.70;99.90;;;;;;5113156;28;20257;-75
2023/01/11 00:30:55;;;;;;;1.10;0.40;;;10.70;99.90;;;;;;5109868;28;20725;-76
2023/01/11 00:33:21;;;;;;;1.20;0.50;;;10.70;99.90;;;;;;5075047;28;20151;-75
2023/01/11 00:35:50;;;;;;;1.10;0.40;;;10.70;99.90;;;;;;5110180;28;20163;-75
2023/01/11 00:38:42;;;;;;;1.48;0.40;;;10.80;99.90;;;;;;5109642;28;20170;-75
2023/01/11 00:47:55;;;;;;;1.20;0.50;;;10.80;99.90;;;;;;5091331;28;20213;-75
2023/01/11 00:49:16;;;;;;;1.65;0.40;;;10.90;99.90;;;;;;5108910;28;20214;-75
2023/01/11 00:51:42;;;;;;;1.77;0.50;;;11.00;99.90;;;;;;5091445;28;20195;-75
2023/01/11 00:54:07;;;;;;;1.60;0.50;;;11.00;99.90;;;;;;5109413;28;20182;-75
2023/01/11 00:56:34;;;;;;;1.00;0.40;;;11.10;99.90;;;;;;5109611;28;20187;-75
2023/01/11 00:59:00;;;;;;;1.20;0.40;;;11.10;99.90;;;;;;5091067;28;20900;-75
2023/01/11 01:01:27;;;;;;;1.13;0.40;;;11.20;99.90;;;;;;5091558;28;20195;-75
2023/01/11 01:03:52;;;;;;;1.00;0.40;;;11.20;99.90;;;;;;5111654;28;20171;-75
2023/01/11 01:06:18;;;;;;;1.10;0.40;;;11.20;99.90;;;;;;5113342;28;20171;-75
2023/01/11 01:08:44;;;;;;;1.10;0.40;;;11.30;99.90;;;;;;5113827;28;20207;-75
2023/01/11 01:11:10;;;;;;;1.10;0.40;;;11.30;99.90;;;;;;5095083;28;20195;-75
2023/01/11 01:16:19;;;;;;;1.02;0.40;;;11.40;99.90;;;;;;5113155;28;20175;-78
2023/01/11 01:18:45;;;;;;;1.10;0.40;;;11.40;99.90;;;;;;5094874;28;20201;-79
2023/01/11 01:21:11;;;;;;;1.40;0.40;;;11.40;99.90;;;;;;5094318;28;20190;-79
2023/01/11 01:23:36;;;;;;;1.00;0.30;;;11.50;99.90;;;;;;5113261;28;20186;-79
2023/01/11 01:26:05;;;;;;;2.73;0.50;;;11.50;99.90;;;;;;5112767;28;20186;-79
2023/01/11 01:28:31;;;;;;;1.20;0.50;;;11.50;99.90;;;;;;5112888;28;20203;-74
2023/01/11 01:30:57;;;;;;;1.10;0.40;;;11.60;99.90;;;;;;5094739;28;20195;-74
2023/01/11 01:33:23;;;;;;;1.00;0.40;;;11.50;99.90;;;;;;5094581;28;20174;-74
2023/01/11 01:35:49;;;;;;;2.22;0.40;;;11.50;99.90;;;;;;5112942;28;20971;-74
2023/01/11 01:38:15;;;;;;;1.17;0.40;;;11.60;99.90;;;;;;5112790;28;20179;-74
2023/01/11 01:40:47;;;;;;;1.20;0.50;;;11.60;99.90;;;;;;5112863;28;20604;-74
2023/01/11 01:43:15;;;;;;;1.25;0.40;;;11.60;99.90;;;;;;5112750;28;20167;-74
2023/01/11 01:45:40;;;;;;;2.13;0.40;;;11.60;99.90;;;;;;5094527;28;20210;-75
2023/01/11 01:48:10;;;;;;;1.10;0.40;;;11.60;99.90;;;;;;5094683;28;20226;-74
2023/01/11 01:50:37;;;;;;;1.23;0.40;;;11.60;99.90;;;;;;5094589;28;20580;-74
2023/01/11 01:53:15;;;;;;;1.55;0.40;;;11.60;99.90;;;;;;5094468;28;20246;-73
2023/01/11 01:55:45;;;;;;;1.15;0.40;;;11.60;99.90;;;;;;5112626;28;20202;-74
2023/01/11 01:58:15;;;;;;;1.30;0.50;;;11.60;99.90;;;;;;5112976;28;20179;-74
2023/01/11 02:00:44;;;;;;;1.10;0.50;;;11.50;99.90;;;;;;5112398;28;20167;-73
2023/01/11 02:03:15;;;;;;;1.10;0.40;;;11.50;99.90;;;;;;5077332;27;20178;-73
2023/01/11 02:05:41;;;;;;;1.35;0.40;;;11.60;99.90;;;;;;5112938;27;20199;-74
2023/01/11 02:08:16;;;;;;;1.10;0.50;;;11.50;99.90;;;;;;5113703;27;20194;-75
2023/01/11 02:10:42;;;;;;;1.08;0.40;;;11.50;99.90;;;;;;5114178;27;20162;-74
2023/01/11 02:13:11;;;;;;;1.30;0.40;;;11.50;99.90;;;;;;5114721;27;20722;-74
2023/01/11 02:15:39;;;;;;;1.40;0.40;;;11.60;99.90;;;;;;5105092;28;20624;-74
2023/01/11 02:18:11;;;;;;;1.23;0.50;;;11.60;99.90;;;;;;5093867;28;20174;-74
2023/01/11 02:21:15;;;;;;;1.85;0.50;;;11.60;99.90;;;;;;5112577;28;20636;-74
2023/01/11 02:23:43;;;;;;;1.30;0.45;;;11.60;99.90;;;;;;5093735;28;20183;-73
2023/01/11 02:26:40;;;;;;;1.20;0.50;;;11.70;99.90;;;;;;5094022;28;20167;-74
2023/01/11 02:29:38;;;;;;;1.58;0.40;;;11.70;99.90;;;;;;5093550;28;20199;-74
2023/01/11 02:32:21;;;;;;;1.25;0.40;;;11.70;99.90;;;;;;5082903;28;20210;-75
2023/01/11 02:35:07;;;;;;;1.00;0.40;;;11.70;99.90;;;;;;5093917;28;20248;-74
2023/01/11 02:37:39;;;;;;;1.30;0.40;;;11.70;99.90;;;;;;5095016;28;20159;-74
2023/01/11 02:40:23;;;;;;;1.00;0.40;;;11.70;99.90;;;;;;5076277;28;20167;-74
2023/01/11 02:45:56;;;;;;;1.10;0.40;;;11.80;99.90;;;;;;5093237;28;20175;-74
2023/01/11 02:48:51;;;;;;;1.63;0.40;;;11.80;99.90;;;;;;5093491;28;20198;-74
2023/01/11 02:51:25;;;;;;;1.30;0.40;;;11.80;99.90;;;;;;5100447;28;20206;-74
2023/01/11 02:54:10;;;;;;;1.73;0.50;;;11.80;99.90;;;;;;5093388;28;20175;-74
2023/01/11 02:56:46;;;;;;;1.10;0.50;;;11.90;99.90;;;;;;5092983;28;20174;-74
2023/01/11 02:59:17;;;;;;;1.05;0.40;;;11.90;99.90;;;;;;5093330;28;20208;-75
2023/01/11 03:01:50;;;;;;;1.10;0.40;;;11.90;99.90;;;;;;5092679;28;20198;-75
2023/01/11 03:04:22;;;;;;;1.00;0.40;;;12.00;99.90;;;;;;5092997;28;20174;-75
2023/01/11 03:06:47;;;;;;;1.77;0.40;;;12.00;99.90;;;;;;5092836;28;20175;-75
2023/01/11 03:09:32;;;;;;;1.03;0.40;;;12.00;99.90;;;;;;5111186;28;20323;-75
2023/01/11 03:15:13;;;;;;;1.05;0.45;;;11.90;99.90;;;;;;5111260;28;20167;-76
2023/01/11 03:17:44;;;;;;;1.42;0.40;;;11.90;99.90;;;;;;5111023;28;20225;-76
2023/01/11 03:20:24;;;;;;;1.00;0.40;;;11.80;99.90;;;;;;5092872;28;20170;-75
2023/01/11 03:23:04;;;;;;;1.10;0.40;;;11.70;99.90;;;;;;5092648;28;20225;-75
2023/01/11 03:26:07;;;;;;;1.50;0.50;;;11.60;99.90;;;;;;5092531;28;20173;-75
2023/01/11 03:28:37;;;;;;;1.10;0.50;;;11.60;99.90;;;;;;5092363;28;20220;-75
2023/01/11 03:31:10;;;;;;;1.08;0.45;;;11.60;99.90;;;;;;5110838;28;20557;-75
2023/01/11 03:33:49;;;;;;;1.20;0.55;;;11.60;99.90;;;;;;5092101;28;20636;-75
2023/01/11 03:36:55;;;;;;;2.05;0.50;;;11.60;99.90;;;;;;5075695;28;20178;-75
2023/01/11 03:39:32;;;;;;;1.27;0.60;;;11.60;99.90;;;;;;5092042;28;20167;-75
2023/01/11 03:42:00;;;;;;;1.00;0.40;;;11.70;99.90;;;;;;5092058;28;20238;-75
2023/01/11 03:44:33;;;;;;;1.10;0.50;;;11.70;99.90;;;;;;5092352;28;20171;-75
2023/01/11 03:47:09;;;;;;;1.20;0.60;;;11.80;99.90;;;;;;5092466;28;20241;-75
2023/01/11 03:50:01;;;;;;;1.20;0.50;;;11.80;99.90;;;;;;5092036;28;20285;-75
2023/01/11 03:52:34;;;;;;;1.10;0.50;;;11.90;99.90;;;;;;5110314;28;20194;-75
2023/01/11 03:55:03;;;;;;;1.10;0.50;;;11.90;99.90;;;;;;5092056;28;20177;-75
2023/01/11 03:57:32;;;;;;;1.10;0.50;;;12.00;99.90;;;;;;5110397;28;20522;-75
2023/01/11 03:59:59;;;;;;;1.20;0.50;;;12.00;99.90;;;;;;5058698;28;20174;-75
2023/01/11 04:02:27;;;;;;;1.55;0.60;;;12.00;99.90;;;;;;5091420;28;20205;-75
2023/01/11 04:04:53;;;;;;;1.10;0.50;;;12.00;99.90;;;;;;5092087;28;20712;-74
2023/01/11 04:07:19;;;;;;;1.10;0.50;;;12.00;99.90;;;;;;5091485;28;20273;-73
2023/01/11 04:09:45;;;;;;;1.00;0.40;;;11.90;99.90;;;;;;5091850;28;20668;-74
2023/01/11 04:12:11;;;;;;;1.10;0.47;;;11.90;99.90;;;;;;5091278;28;20862;-74
2023/01/11 04:14:36;;;;;;;1.30;0.50;;;11.80;99.90;;;;;;5110165;28;20212;-74
2023/01/11 04:17:03;;;;;;;1.40;0.50;;;11.70;99.90;;;;;;5091120;27;20162;-74
2023/01/11 04:19:28;;;;;;;1.10;0.50;;;11.60;99.90;;;;;;5112257;27;20181;-74
2023/01/11 04:21:54;;;;;;;2.80;0.50;;;11.60;99.90;;;;;;5095040;27;20190;-73
2023/01/11 04:24:20;;;;;;;1.20;0.50;;;11.60;99.90;;;;;;5112166;27;20178;-74
2023/01/11 04:26:46;;;;;;;1.70;0.50;;;11.50;99.90;;;;;;5078389;28;20185;-74
2023/01/11 04:29:12;;;;;;;1.90;0.50;;;11.50;99.90;;;;;;5094985;28;20198;-73
2023/01/11 04:31:37;;;;;;;1.00;0.40;;;11.50;99.90;;;;;;5111695;28;21105;-74
2023/01/11 04:34:03;;;;;;;1.33;0.40;;;11.60;99.90;;;;;;5111696;28;20566;-74
2023/01/11 04:36:30;;;;;;;1.10;0.40;;;11.60;99.90;;;;;;5130374;28;20591;-74
2023/01/11 04:38:59;;;;;;;1.00;0.40;;;11.60;99.90;;;;;;5114041;27;20174;-74
2023/01/11 04:44:09;;;;;;;1.10;0.40;;;11.70;99.90;;;;;;5099070;27;20181;-74
2023/01/11 04:46:34;;;;;;;1.00;0.40;;;11.80;99.90;;;;;;5098680;27;20162;-74
2023/01/11 04:49:00;;;;;;;1.10;0.40;;;11.90;99.90;;;;;;5115522;27;20297;-74
2023/01/11 04:51:27;;;;;;;1.25;0.40;;;11.90;99.90;;;;;;5115532;27;20354;-74
2023/01/11 04:53:52;;;;;;;1.00;0.30;;;12.00;99.90;;;;;;5116092;27;20694;-74
2023/01/11 04:56:18;;;;;;;2.03;0.77;;;12.00;99.90;;;;;;5115616;27;20198;-75
2023/01/11 04:58:44;;;;;;;1.20;0.43;;;12.10;99.90;;;;;;5115926;27;20178;-74
2023/01/11 05:01:14;;;;;;;1.00;0.40;;;12.10;99.90;;;;;;5122098;27;20195;-74
2023/01/11 05:03:39;;;;;;;1.10;0.40;;;12.10;99.90;;;;;;5095528;28;20522;-74
2023/01/11 05:06:05;;;;;;;1.00;0.40;;;12.10;99.90;;;;;;5095101;28;20182;-74
2023/01/11 05:08:31;;;;;;;1.08;0.40;;;12.20;99.90;;;;;;5113070;28;20550;-74
2023/01/11 05:10:59;;;;;;;1.07;0.40;;;12.20;99.90;;;;;;5095118;28;20187;-74
2023/01/11 05:13:40;;;;;;;1.00;0.40;;;12.20;99.90;;;;;;5094828;28;20577;-74
2023/01/11 05:16:17;;;;;;;1.10;0.40;;;12.20;99.90;;;;;;5113207;28;20204;-74
2023/01/11 05:18:53;;;;;;;1.08;0.40;;;12.20;99.90;;;;;;5102620;27;20261;-74
2023/01/11 05:21:21;;;;;;;1.00;0.40;;;12.20;99.90;;;;;;5128957;27;20239;-74
2023/01/11 05:23:47;;;;;;;1.10;0.40;;;12.20;99.90;;;;;;5108158;27;20264;-74
2023/01/11 05:26:21;;;;;;;1.00;0.30;;;12.20;99.90;;;;;;5106124;27;20196;-74
2023/01/11 05:28:48;;;;;;;1.10;0.40;;;12.20;99.90;;;;;;5120643;27;20205;-74
2023/01/11 05:31:14;;;;;;;1.40;0.40;;;12.20;99.90;;;;;;5102529;28;20226;-74
2023/01/11 05:33:40;;;;;;;1.00;0.40;;;12.20;99.90;;;;;;5094244;28;20220;-74
2023/01/11 05:36:10;;;;;;;1.00;0.40;;;12.20;99.90;;;;;;5093267;28;20577;-74
2023/01/11 05:38:36;;;;;;;1.10;0.40;;;12.20;99.90;;;;;;5101901;28;20171;-75
2023/01/11 05:41:07;;;;;;;1.00;0.40;;;12.30;99.90;;;;;;5095267;28;20793;-75
2023/01/11 05:45:27;;;;;;;1.10;0.47;;;12.30;99.90;;;;;;5117119;27;20183;-75
2023/01/11 05:46:19;;;;;;;1.08;0.40;;;12.30;99.90;;;;;;5111274;27;20171;-74
2023/01/11 05:48:45;;;;;;;1.20;0.40;;;12.30;99.90;;;;;;5124466;27;20244;-74
2023/01/11 05:51:10;;;;;;;1.07;0.40;;;12.30;99.90;;;;;;5112174;27;20213;-73
2023/01/11 05:53:36;;;;;;;1.10;0.40;;;12.30;99.90;;;;;;5097739;27;20170;-73
2023/01/11 05:56:02;;;;;;;1.00;0.40;;;12.30;99.90;;;;;;5104259;28;20227;-76
2023/01/11 05:58:28;;;;;;;1.10;0.40;;;12.30;99.90;;;;;;5095289;28;20175;-74
2023/01/11 06:00:55;;;;;;;1.20;0.40;;;12.30;99.90;;;;;;5095270;28;20581;-73
2023/01/11 06:03:23;;;;;;;2.28;0.60;;;12.30;99.90;;;;;;5114056;28;20171;-74
2023/01/11 06:05:48;;;;;;;1.20;0.43;;;12.30;99.90;;;;;;5100967;28;20559;-74
2023/01/11 06:08:14;;;;;;;1.43;0.50;;;12.30;99.90;;;;;;5091781;28;20203;-74
2023/01/11 06:10:40;;;;;;;1.40;0.52;;;12.30;99.90;;;;;;5102026;28;20640;-74
2023/01/11 06:16:03;;;;;;;1.20;0.40;;;12.30;99.90;;;;;;5097210;28;20167;-74
2023/01/11 06:18:31;;;;;;;1.10;0.50;;;12.30;99.90;;;;;;5111416;28;20208;-74
2023/01/11 06:20:57;;;;;;;1.40;0.50;;;12.20;99.90;;;;;;5119316;27;20187;-74
2023/01/11 06:23:24;;;;;;;1.10;0.43;;;12.20;99.90;;;;;;5102359;27;20239;-73
2023/01/11 06:25:50;;;;;;;1.58;0.50;;;12.20;99.90;;;;;;5107310;27;20584;-73
2023/01/11 06:28:16;;;;;;;1.48;0.40;;;12.20;99.90;;;;;;5113775;27;20221;-73
2023/01/11 06:30:42;;;;;;;2.67;1.23;;;12.20;99.90;;;;;;5095987;27;20216;-73
2023/01/11 06:33:08;;;;;;;1.33;0.50;;;12.10;99.90;;;;;;5113297;27;20167;-73
2023/01/11 06:35:39;;;;;;;1.70;0.50;;;12.20;99.90;;;;;;5083598;28;20651;-74
2023/01/11 06:38:11;;;;;;;1.27;0.50;;;12.20;99.90;;;;;;5098012;28;20171;-74
2023/01/11 06:40:38;;;;;;;1.73;0.52;;;12.20;99.90;;;;;;5092915;28;20177;-74
2023/01/11 06:43:04;;;;;;;1.10;0.50;;;12.30;99.90;;;;;;5111392;28;20163;-74
2023/01/11 06:45:30;;;;;;;1.77;0.50;;;12.30;99.90;;;;;;5075793;28;20171;-74
2023/01/11 06:47:56;;;;;;;1.10;0.40;;;12.40;99.90;;;;;;5092884;28;20191;-75
2023/01/11 06:50:23;;;;;;;1.30;0.50;;;12.40;99.90;;;;;;5093184;28;20163;-74
2023/01/11 06:52:55;;;;;;;1.30;0.50;;;12.40;99.90;;;;;;5110722;28;20187;-74
2023/01/11 06:55:23;;;;;;;1.30;0.50;;;12.40;99.90;;;;;;5111093;28;20159;-74
2023/01/11 06:57:48;;;;;;;1.10;0.50;;;12.50;99.90;;;;;;5110977;28;20184;-75
2023/01/11 07:00:16;;;;;;;1.15;0.55;;;12.50;99.90;;;;;;5092433;28;20218;-74
2023/01/11 07:02:42;;;;;;;1.20;0.60;;;12.60;99.90;;;;;;5112900;27;20278;-74
2023/01/11 07:05:09;;;;;;;1.27;0.60;;;12.60;99.90;;;;;;5112453;27;20260;-76
2023/01/11 07:07:36;;;;;;;1.30;0.60;;;12.60;99.90;;;;;;5124341;27;20220;-74
2023/01/11 07:10:02;;;;;;;1.40;0.60;;;12.70;99.90;;;;;;5110477;28;20285;-75
2023/01/11 07:12:28;;;;;;;2.03;1.10;;;12.70;99.90;;;;;;5075112;28;20561;-75
2023/01/11 07:14:53;;;;;;;1.63;0.60;;;12.70;99.90;;;;;;5103791;28;20270;-75
2023/01/11 07:17:19;;;;;;;1.30;0.60;;;12.70;99.90;;;;;;5117843;27;20177;-75
2023/01/11 07:19:45;;;;;;;1.60;0.60;;;12.80;99.90;;;;;;5105166;27;20174;-75
2023/01/11 07:22:10;;;;;;;1.63;0.70;;;12.80;99.90;;;;;;5103390;27;20253;-76
2023/01/11 07:24:36;;;;;;;1.93;0.50;;;12.80;99.90;;;;;;5098393;28;20209;-75
2023/01/11 07:27:02;;;;;;;1.17;0.60;;;12.80;99.90;;;;;;5095760;28;20175;-75
2023/01/11 07:29:28;;;;;;;2.23;0.70;;;12.80;99.90;;;;;;5115746;27;20285;-76
2023/01/11 07:31:53;;;;;;;3.10;1.43;;;12.80;99.90;;;;;;5121295;27;21306;-76
2023/01/11 07:34:19;;;;;;;1.30;0.70;;;12.80;99.90;;;;;;5110667;27;20202;-76
2023/01/11 07:36:45;;;;;;;2.07;0.50;;;12.90;99.90;;;;;;5111816;27;20174;-76
2023/01/11 07:39:11;;;;;;;1.10;0.50;;;12.80;99.90;;;;;;5130755;27;20180;-77
2023/01/11 07:44:22;;;;;;;2.13;0.60;;;12.90;99.90;;;;;;5112150;27;20582;-77
2023/01/11 07:46:48;;;;;;;3.07;0.80;;;12.90;99.90;;;;;;5094641;27;20580;-77
2023/01/11 07:49:13;;;;;;;1.20;0.50;;;12.90;99.90;;;;;;5095203;27;20281;-76
2023/01/11 07:51:39;;;;;;;1.50;0.60;;;12.90;99.90;;;;;;5095458;27;20801;-76
2023/01/11 07:54:05;;;;;;;1.30;0.50;;;12.90;99.90;;;;;;5133592;27;20170;-77
2023/01/11 07:56:31;;;;;;;1.30;0.53;;;12.90;99.90;;;;;;5130981;27;20166;-77
2023/01/11 07:58:56;;;;;;;1.40;0.70;;;12.90;99.90;;;;;;5111772;27;20326;-76
2023/01/11 08:01:23;;;;;;;2.70;0.80;;;12.90;99.90;;;;;;5130298;27;20641;-77
2023/01/11 08:03:49;;;;;;;1.90;0.80;;;12.90;99.90;;;;;;5123767;27;20790;-76
2023/01/11 08:06:15;;;;;;;1.80;0.80;;;12.90;99.90;;;;;;5109663;28;20171;-76
2023/01/11 08:08:42;;;;;;;2.03;1.20;;;12.90;99.90;;;;;;5091450;28;20723;-77
2023/01/11 08:16:37;;;;;;;1.40;0.85;;;12.90;99.90;;;;;;5091213;28;20178;-76
2023/01/11 08:19:03;;;;;;;1.40;0.80;;;12.90;99.90;;;;;;5091690;28;20186;-76
2023/01/11 08:21:29;;;;;;;1.20;0.60;;;12.90;99.90;;;;;;5090646;28;20198;-77
2023/01/11 08:23:56;;;;;;;2.23;0.60;;;12.90;99.90;;;;;;5110127;28;20953;-76
2023/01/11 08:26:24;;;;;;;1.13;0.50;;;12.90;99.90;;;;;;5090360;28;20175;-76
2023/01/11 08:28:50;;;;;;;1.70;0.80;;;12.90;99.90;;;;;;5091414;28;20217;-76
2023/01/11 08:31:16;;;;;;;1.37;0.40;;;12.90;99.90;;;;;;5093448;28;20652;-75
2023/01/11 08:33:41;;;;;;;3.10;0.70;;;13.00;99.90;;;;;;5109782;28;20691;-76
2023/01/11 08:36:09;;;;;;;1.60;0.57;;;12.90;99.90;;;;;;5090821;28;20163;-76
2023/01/11 08:38:35;;;;;;;1.20;0.50;;;12.90;99.90;;;;;;5091426;28;20181;-76
2023/01/11 08:41:02;;;;;;;2.03;0.60;;;12.90;99.90;;;;;;5081558;28;20874;-76
2023/01/11 08:43:31;;;;;;;1.83;0.70;;;12.90;99.90;;;;;;5098525;28;20603;-76
2023/01/11 08:45:57;;;;;;;1.97;0.60;;;13.00;99.90;;;;;;5090678;28;20174;-76
2023/01/11 08:48:22;;;;;;;1.50;0.53;;;13.00;99.90;;;;;;5090884;28;20769;-75
2023/01/11 08:50:48;;;;;;;1.40;0.63;;;13.00;99.90;;;;;;5090938;28;20675;-75
2023/01/11 08:53:14;;;;;;;1.20;0.60;;;13.00;99.90;;;;;;5108899;28;20585;-76
2023/01/11 08:55:43;;;;;;;1.23;0.60;;;13.00;99.90;;;;;;5090720;28;20749;-77
2023/01/11 08:58:09;;;;;;;1.40;0.70;;;13.00;99.90;;;;;;5090718;28;21181;-76
2023/01/11 09:00:35;;;;;;;2.40;0.83;;;13.00;99.90;;;;;;5091110;28;20228;-75
2023/01/11 09:03:01;;;;;;;2.60;0.70;;;12.90;99.90;;;;;;5109083;28;20588;-76
2023/01/11 09:05:26;;;;;;;1.33;0.68;;;12.90;99.90;;;;;;5090367;28;20748;-76
2023/01/11 09:07:55;;;;;;;1.40;0.60;;;12.90;99.90;;;;;;5111136;28;20194;-75
2023/01/11 09:10:25;;;;;;;1.40;0.60;;;12.90;99.90;;;;;;5092364;28;20588;-75
2023/01/11 09:12:52;;;;;;;2.17;1.27;;;12.90;99.90;;;;;;5090642;28;20929;-76
2023/01/11 09:15:18;;;;;;;2.00;0.80;;;12.90;99.90;;;;;;5108281;28;20181;-76
2023/01/11 09:17:45;;;;;;;2.37;1.10;;;12.90;99.90;;;;;;5109216;28;20167;-75
2023/01/11 09:20:11;;;;;;;4.10;1.20;;;12.90;99.90;;;;;;5090680;28;20222;-76
2023/01/11 09:22:38;;;;;;;1.80;0.90;;;12.90;99.90;;;;;;5108797;28;20186;-76
2023/01/11 09:25:05;;;;;;;1.40;0.90;;;12.90;99.90;;;;;;5110744;28;20624;-76
2023/01/11 09:27:31;;;;;;;1.73;0.90;;;12.90;99.90;;;;;;5112455;28;20688;-75
2023/01/11 09:33:44;;;;;;;4.53;1.15;;;12.90;99.90;;;;;;5092411;28;20581;-76
2023/01/11 09:36:10;;;;;;;4.00;1.27;;;12.90;99.90;;;;;;5074009;28;20161;-76
2023/01/11 09:38:38;;;;;;;5.90;1.35;;;12.90;99.90;;;;;;5091976;28;20164;-76
2023/01/11 09:41:22;;;;;;;2.13;0.90;;;13.00;99.90;;;;;;5091337;28;20206;-76
2023/01/11 09:44:14;;;;;;;2.07;0.90;;;12.90;99.90;;;;;;5104789;27;20683;-75
2023/01/11 09:46:47;;;;;;;8.65;1.10;;;13.00;99.90;;;;;;5115810;28;20584;-75
2023/01/11 09:49:30;;;;;;;1.77;1.00;;;13.00;99.90;;;;;;5121133;27;20238;-75
2023/01/11 09:52:25;;;;;;;4.47;1.10;;;13.00;99.90;;;;;;5105458;27;20714;-75
2023/01/11 09:54:51;;;;;;;3.55;1.05;;;13.00;99.90;;;;;;5106103;28;20246;-75
2023/01/11 09:57:32;;;;;;;2.63;1.10;;;13.00;99.90;;;;;;5100503;28;20175;-75
2023/01/11 10:00:08;;;;;;;2.70;1.47;;;13.00;99.90;;;;;;5093389;28;20589;-75
2023/01/11 10:03:13;;;;;;;4.03;1.37;;;13.10;99.90;;;;;;5093748;28;20640;-74
2023/01/11 10:05:54;;;;;;;4.23;1.27;;;13.00;99.90;;;;;;5112011;28;20576;-76
2023/01/11 10:08:26;;;;;;;5.33;1.70;;;13.10;99.90;;;;;;5094012;28;20612;-75
2023/01/11 10:11:20;;;;;;;6.80;1.83;;;13.10;99.90;;;;;;5093326;28;20580;-75
2023/01/11 10:13:59;;;;;;;9.17;3.00;;;13.10;99.90;;;;;;5057243;28;20947;-76
2023/01/11 10:17:12;;;;;;;7.70;1.90;;;13.00;99.90;;;;;;5091808;28;20576;-75
2023/01/11 10:20:27;;;;;;;6.65;1.98;;;13.00;99.90;;;;;;5028703;28;20584;-76
2023/01/11 10:23:31;;;;;;;11.70;3.13;;;13.00;99.90;;;;;;4995299;28;20237;-76
2023/01/11 10:26:01;;;;;;;6.70;2.00;;;12.90;99.90;;;;;;5072824;28;20592;-76
2023/01/11 10:29:02;;;;;;;6.87;2.33;;;12.90;99.90;;;;;;5084505;27;20628;-76
2023/01/11 10:34:37;;;;;;;9.07;2.17;;;12.90;99.90;;;;;;5093538;28;20742;-75
2023/01/11 10:40:25;;;;;;;4.87;1.90;;;12.90;99.90;;;;;;5113890;28;20591;-76
2023/01/11 10:43:15;;;;;;;7.05;1.98;;;12.90;99.90;;;;;;5094613;28;20699;-75
2023/01/11 10:45:47;;;;;;;6.10;1.75;;;12.90;99.90;;;;;;5113830;28;20228;-76
2023/01/11 10:48:22;;;;;;;5.85;1.92;;;12.90;99.90;;;;;;5094410;28;20174;-76
2023/01/11 10:50:58;;;;;;;8.83;2.70;;;12.90;99.90;;;;;;5113271;28;20227;-76
2023/01/11 10:53:32;;;;;;;9.35;2.40;;;12.90;99.90;;;;;;5112714;28;21123;-75
2023/01/11 10:56:19;;;;;;;7.38;2.20;;;12.90;99.90;;;;;;5061953;28;20167;-75
2023/01/11 10:59:03;;;;;;;5.55;1.85;;;12.80;99.90;;;;;;5113277;28;20182;-76
2023/01/11 11:01:51;;;;;;;10.60;2.43;;;12.90;99.90;;;;;;5101719;27;20198;-76
2023/01/11 11:04:38;;;;;;;5.33;2.53;;;12.90;99.90;;;;;;5060564;27;20661;-74
2023/01/11 11:07:13;;;;;;;7.60;2.20;;;12.90;99.90;;;;;;5112716;28;20599;-76
2023/01/11 11:09:56;;;;;;;11.07;2.50;;;12.90;99.90;;;;;;5086086;27;20726;-77
2023/01/11 11:12:27;;;;;;;6.80;2.40;;;12.90;99.90;;;;;;5122703;27;20526;-75
2023/01/11 11:14:59;;;;;;;6.57;2.10;;;12.90;99.90;;;;;;5115788;27;20583;-75
2023/01/11 11:17:30;;;;;;;6.23;2.30;;;12.90;99.90;;;;;;5114728;27;20985;-75
2023/01/11 11:19:56;;;;;;;11.30;2.40;;;12.90;99.90;;;;;;5134120;27;20572;-76
2023/01/11 11:22:22;;;;;;;10.18;3.20;;;12.90;99.90;;;;;;5114760;27;21006;-76
2023/01/11 11:24:58;;;;;;;9.13;2.40;;;12.90;99.90;;;;;;5133928;27;20199;-75
2023/01/11 11:27:42;;;;;;;7.03;3.13;;;12.90;99.90;;;;;;5114181;27;20178;-76
2023/01/11 11:30:12;;;;;;;8.80;3.50;;;12.90;99.90;;;;;;5114073;27;20628;-76
2023/01/11 11:32:43;;;;;;;8.93;3.10;;;12.90;99.90;;;;;;5106058;28;20613;-76
2023/01/11 11:35:32;;;;;;;6.15;2.25;;;12.90;99.90;;;;;;5074552;28;20705;-76
2023/01/11 11:37:58;;;;;;;7.28;3.65;;;12.80;99.90;;;;;;5096043;28;20176;-77
2023/01/11 11:40:36;;;;;;;2.80;1.52;;;12.80;99.90;;;;;;5104167;27;20217;-77
2023/01/11 11:43:11;;;;;;;4.60;1.80;;;12.80;99.90;;;;;;5107407;27;20247;-77
2023/01/11 11:45:52;;;;;;;8.80;3.03;;;12.80;99.90;;;;;;5136597;27;20226;-76
2023/01/11 11:48:18;;;;;;;7.30;3.95;;;12.70;99.90;;;;;;5118035;27;20174;-76
2023/01/11 11:50:45;;;;;;;7.43;2.08;;;12.60;99.90;;;;;;5106061;28;20206;-76
2023/01/11 11:53:36;;;;;;;10.37;2.50;;;12.60;99.90;;;;;;5077249;27;20163;-75
2023/01/11 11:56:36;;;;;;;10.13;1.70;;;12.50;99.90;;;;;;5132581;27;20588;-76
2023/01/11 11:59:08;;;;;;;9.13;2.65;;;12.40;99.90;;;;;;5105503;27;20190;-76
2023/01/11 12:01:39;;;;;;;11.95;2.55;;;12.40;99.90;;;;;;5108432;27;20198;-77
2023/01/11 12:04:14;;;;;;;11.77;3.00;;;12.40;99.90;;;;;;5122341;27;20272;-76
2023/01/11 12:06:41;;;;;;;7.82;1.85;;;12.30;99.90;;;;;;5116264;27;20167;-78
2023/01/11 12:09:46;;;;;;;8.60;1.98;;;12.30;99.90;;;;;;5093249;28;20213;-78
2023/01/11 12:12:17;;;;;;;6.00;1.80;;;12.30;99.90;;;;;;5007913;28;20217;-75
2023/01/11 12:15:02;;;;;;;9.13;1.98;;;12.30;99.90;;;;;;5097817;28;20175;-76
2023/01/11 12:17:29;;;;;;;8.35;2.05;;;12.30;99.90;;;;;;5093131;28;20182;-75
2023/01/11 12:19:54;;;;;;;6.60;1.85;;;12.30;99.90;;;;;;5092278;28;20171;-76
2023/01/11 12:22:23;;;;;;;8.90;1.70;;;12.30;99.90;;;;;;5111398;28;20281;-77
2023/01/11 12:25:23;;;;;;;8.73;2.70;;;12.30;99.90;;;;;;5093098;28;20273;-76
2023/01/11 12:28:03;;;;;;;7.80;2.42;;;12.40;99.90;;;;;;5102866;28;20185;-79
2023/01/11 12:30:52;;;;;;;8.93;2.10;;;12.40;99.90;;;;;;5121777;27;20642;-75
2023/01/11 12:33:27;;;;;;;7.20;1.40;;;12.50;99.90;;;;;;5105526;28;20197;-76
2023/01/11 12:35:58;;;;;;;8.93;1.98;;;12.50;99.90;;;;;;5072469;28;20195;-76
2023/01/11 12:38:46;;;;;;;7.22;2.35;;;12.60;99.90;;;;;;5090125;28;20184;-76
2023/01/11 12:41:43;;;;;;;7.93;1.83;;;12.50;99.90;;;;;;5088555;28;20272;-76
2023/01/11 12:44:33;;;;;;;8.50;1.98;;;12.60;99.90;;;;;;5091052;28;20822;-77
2023/01/11 12:47:29;;;;;;;6.85;1.73;;;12.60;99.90;;;;;;5091668;28;20189;-76
2023/01/11 12:50:15;;;;;;;11.93;2.17;;;12.60;99.90;;;;;;5101584;28;20190;-77
2023/01/11 12:53:00;;;;;;;10.70;2.20;;;12.60;99.90;;;;;;5120333;27;20948;-78
2023/01/11 12:55:51;;;;;;;9.75;2.28;;;12.70;99.90;;;;;;5111334;28;20178;-77
2023/01/11 12:58:43;;;;;;;5.50;1.83;;;12.60;99.90;;;;;;5092797;28;20171;-76
2023/01/11 13:01:20;;;;;;;6.70;2.08;;;12.60;99.90;;;;;;5114598;28;20679;-77
2023/01/11 13:04:01;;;;;;;7.40;2.22;;;12.70;99.90;;;;;;5099688;27;20168;-78
2023/01/11 13:06:40;;;;;;;14.82;1.85;;;12.70;99.90;;;;;;5124049;27;20179;-77
2023/01/11 13:09:12;;;;;;;6.45;1.30;;;12.70;99.90;;;;;;5091152;28;20228;-76
2023/01/11 13:12:08;;;;;;;10.25;1.70;;;12.60;99.90;;;;;;5094095;28;20732;-76
2023/01/11 13:14:55;;;;;;;6.43;1.70;;;12.60;99.90;;;;;;5075913;28;20178;-77
2023/01/11 13:17:37;;;;;;;14.57;2.03;;;12.60;99.90;;;;;;5119928;27;20280;-77
2023/01/11 13:20:06;;;;;;;8.98;2.78;;;12.60;99.90;;;;;;5131083;27;20177;-76
2023/01/11 13:22:37;;;;;;;11.35;2.90;;;12.60;99.90;;;;;;5135718;27;20193;-76
2023/01/11 13:25:14;;;;;;;7.65;2.15;;;12.60;99.90;;;;;;5116767;27;20178;-76
2023/01/11 13:27:40;;;;;;;7.95;2.40;;;12.60;99.90;;;;;;5117364;27;20516;-75
2023/01/11 13:30:11;;;;;;;7.18;2.15;;;12.60;99.90;;;;;;5139432;27;20565;-76
2023/01/11 13:32:41;;;;;;;7.90;3.05;;;12.60;99.90;;;;;;5135293;27;20186;-77
2023/01/11 13:35:42;;;;;;;8.55;3.70;;;12.60;99.90;;;;;;5091900;22;20223;-80
2023/01/11 13:38:33;;;;;;;7.20;2.60;;;12.50;99.90;;;;;;5075642;28;20541;-80
2023/01/11 13:41:10;;;;;;;5.63;1.77;;;12.60;99.90;;;;;;5094821;28;20593;-80
2023/01/11 13:43:47;;;;;;;5.88;2.40;;;12.60;99.90;;;;;;5075624;28;20592;-80
2023/01/11 13:46:20;;;;;;;6.20;1.97;;;12.60;99.90;;;;;;5076125;28;20175;-80
2023/01/11 13:48:55;;;;;;;6.72;1.85;;;12.60;99.90;;;;;;5080714;28;20644;-79
2023/01/11 13:51:44;;;;;;;8.50;2.40;;;12.60;99.90;;;;;;5113223;28;20198;-79